createdAt,value
2023-03-24T00:00:35.511Z,0.82
2023-03-24T00:05:40.648Z,1.30
2023-03-24T00:10:47.757Z,1.00
2023-03-24T00:15:52.727Z,1.10
2023-03-24T00:20:58.874Z,1.10
2023-03-24T00:26:03.471Z,1.00
2023-03-24T00:31:09.475Z,1.10
2023-03-24T00:36:13.962Z,1.40
2023-03-24T00:41:20.666Z,1.27
2023-03-24T00:46:29.710Z,1.30
2023-03-24T00:51:35.506Z,1.10
2023-03-24T00:56:41.353Z,1.10
2023-03-24T01:01:46.727Z,1.52
2023-03-24T01:06:52.615Z,1.52
2023-03-24T01:11:56.283Z,1.70
2023-03-24T01:17:01.571Z,1.70
2023-03-24T01:22:05.064Z,1.67
2023-03-24T01:27:08.405Z,1.40
2023-03-24T01:32:13.339Z,2.00
2023-03-24T01:37:16.713Z,1.80
2023-03-24T01:42:22.544Z,1.90
2023-03-24T01:47:27.854Z,2.10
2023-03-24T01:52:34.298Z,1.77
2023-03-24T01:57:42.027Z,1.98
2023-03-24T02:02:49.887Z,1.92
2023-03-24T02:08:01.633Z,2.13
2023-03-24T02:13:05.950Z,2.35
2023-03-24T02:18:24.282Z,2.42
2023-03-24T02:23:57.664Z,1.80
2023-03-24T02:29:18.299Z,2.00
2023-03-24T02:35:06.950Z,1.90
2023-03-24T02:40:23.512Z,2.38
2023-03-24T02:45:36.216Z,2.20
2023-03-24T02:50:49.015Z,2.45
2023-03-24T02:55:58.980Z,2.30
2023-03-24T03:01:09.665Z,2.25
2023-03-24T03:06:17.786Z,2.88
2023-03-24T03:11:22.611Z,2.45
2023-03-24T03:16:39.088Z,2.53
2023-03-24T03:21:45.932Z,2.70
2023-03-24T03:26:51.655Z,2.35
2023-03-24T03:32:01.078Z,2.03
2023-03-24T03:37:10.420Z,2.40
2023-03-24T03:42:15.453Z,1.95
2023-03-24T03:47:19.950Z,2.00
2023-03-24T03:52:23.715Z,1.98
2023-03-24T03:57:29.185Z,2.00
2023-03-24T04:02:47.553Z,2.20
2023-03-24T04:08:07.455Z,2.25
2023-03-24T04:13:24.719Z,2.25
2023-03-24T04:18:50.376Z,2.20
2023-03-24T04:24:07.056Z,2.10
2023-03-24T04:29:20.155Z,2.47
2023-03-24T04:34:29.756Z,2.00
2023-03-24T04:39:39.161Z,2.10
2023-03-24T04:44:44.242Z,2.17
2023-03-24T04:49:47.356Z,2.20
2023-03-24T04:54:50.837Z,2.10
2023-03-24T04:59:58.364Z,2.10
2023-03-24T05:05:01.614Z,2.03
2023-03-24T05:10:05.108Z,1.98
2023-03-24T05:15:10.722Z,1.95
2023-03-24T05:20:15.782Z,2.15
2023-03-24T05:25:19.811Z,1.77
2023-03-24T05:30:24.920Z,1.98
2023-03-24T05:35:28.305Z,2.10
2023-03-24T05:40:31.419Z,1.90
2023-03-24T05:45:36.042Z,2.40
2023-03-24T05:50:39.491Z,2.10
2023-03-24T05:55:46.964Z,2.05
2023-03-24T06:00:51.545Z,2.10
2023-03-24T06:05:55.123Z,2.22
2023-03-24T06:11:02.900Z,2.10
2023-03-24T06:16:09.910Z,1.88
2023-03-24T06:21:13.354Z,2.13
2023-03-24T06:26:17.023Z,2.08
2023-03-24T06:31:24.093Z,1.83
2023-03-24T06:36:28.657Z,2.25
2023-03-24T06:41:31.976Z,1.90
2023-03-24T06:46:38.120Z,2.17
2023-03-24T06:51:41.575Z,1.70
2023-03-24T06:56:46.572Z,1.95
2023-03-24T07:01:57.488Z,2.00
2023-03-24T07:07:24.651Z,2.38
2023-03-24T07:12:24.445Z,2.00
2023-03-24T07:17:32.037Z,1.98
2023-03-24T07:22:37.134Z,2.10
2023-03-24T07:27:42.884Z,2.13
2023-03-24T07:32:50.235Z,1.80
2023-03-24T07:37:53.978Z,2.17
2023-03-24T07:43:00.962Z,1.90
2023-03-24T07:48:05.663Z,1.70
2023-03-24T07:53:09.905Z,2.17
2023-03-24T07:58:14.808Z,1.60
2023-03-24T08:03:25.886Z,1.67
2023-03-24T08:08:29.856Z,2.00
2023-03-24T08:13:33.355Z,1.80
2023-03-24T08:18:38.866Z,1.98
2023-03-24T08:23:42.184Z,1.80
2023-03-24T08:28:45.632Z,1.35
2023-03-24T08:33:50.457Z,1.55
2023-03-24T08:38:54.624Z,1.30
2023-03-24T08:43:58.327Z,1.50
2023-03-24T08:49:02.931Z,1.42
2023-03-24T08:54:06.303Z,1.10
2023-03-24T08:59:09.612Z,1.15
2023-03-24T09:04:14.528Z,0.80
2023-03-24T09:09:17.809Z,1.13
2023-03-24T09:14:24.222Z,1.05
2023-03-24T09:19:29.365Z,0.80
2023-03-24T09:24:32.450Z,0.80
2023-03-24T09:29:35.901Z,0.82
2023-03-24T09:34:41.005Z,0.80
2023-03-24T09:39:44.297Z,0.80
2023-03-24T09:44:50.602Z,1.00
2023-03-24T09:49:58.948Z,0.82
2023-03-24T09:55:03.631Z,0.85
2023-03-24T10:00:18.956Z,0.80
2023-03-24T10:05:32.911Z,0.95
2023-03-24T10:10:44.442Z,0.93
2023-03-24T10:15:53.716Z,0.90
2023-03-24T10:21:04.748Z,0.98
2023-03-24T10:26:20.415Z,0.93
2023-03-24T10:31:30.389Z,1.00
2023-03-24T10:36:36.058Z,0.90
2023-03-24T10:41:42.391Z,0.90
2023-03-24T10:46:49.637Z,1.08
2023-03-24T10:52:01.310Z,0.90
2023-03-24T10:57:08.091Z,0.70
2023-03-24T11:02:20.015Z,0.90
2023-03-24T11:07:29.926Z,0.70
2023-03-24T11:12:34.741Z,0.80
2023-03-24T11:17:39.563Z,0.70
2023-03-24T11:23:03.722Z,0.70
2023-03-24T11:28:10.184Z,0.70
2023-03-24T11:33:35.094Z,0.70
2023-03-24T11:38:41.504Z,1.30
2023-03-24T11:43:48.205Z,0.70
2023-03-24T11:48:56.014Z,1.00
2023-03-24T11:54:03.551Z,0.65
2023-03-24T11:59:15.953Z,0.75
2023-03-24T12:04:37.515Z,0.60
2023-03-24T12:09:52.263Z,0.60
2023-03-24T12:15:28.239Z,0.73
2023-03-24T12:20:36.560Z,0.70
2023-03-24T12:25:50.675Z,0.85
2023-03-24T12:31:05.398Z,1.10
2023-03-24T12:36:22.532Z,1.20
2023-03-24T12:41:57.587Z,0.90
2023-03-24T12:47:09.588Z,0.63
2023-03-24T12:52:25.330Z,0.80
2023-03-24T12:57:33.358Z,0.70
2023-03-24T13:02:40.448Z,1.00
2023-03-24T13:07:47.635Z,0.82
2023-03-24T13:12:59.662Z,1.00
2023-03-24T13:18:19.477Z,1.00
2023-03-24T13:23:49.221Z,0.90
2023-03-24T13:29:06.320Z,0.80
2023-03-24T13:34:25.487Z,1.10
2023-03-24T13:39:30.737Z,0.90
2023-03-24T13:44:41.118Z,1.25
2023-03-24T13:49:55.331Z,1.25
2023-03-24T13:55:02.038Z,1.10
2023-03-24T14:00:22.459Z,1.17
2023-03-24T14:05:59.900Z,0.80
2023-03-24T14:11:03.299Z,0.70
2023-03-24T14:16:43.005Z,1.00
2023-03-24T14:21:46.756Z,1.00
2023-03-24T14:26:51.329Z,0.95
2023-03-24T14:32:17.287Z,1.10
2023-03-24T14:37:24.729Z,1.10
2023-03-24T14:42:44.339Z,0.77
2023-03-24T14:47:49.455Z,0.75
2023-03-24T14:52:56.342Z,0.80
2023-03-24T14:58:05.025Z,0.93
2023-03-24T15:03:24.708Z,0.80
2023-03-24T15:08:29.518Z,0.80
2023-03-24T15:13:37.413Z,0.77
2023-03-24T15:18:59.851Z,0.80
2023-03-24T15:24:25.105Z,1.10
2023-03-24T15:29:28.400Z,0.90
2023-03-24T15:34:40.257Z,1.15
2023-03-24T15:39:43.544Z,0.70
2023-03-24T15:44:46.932Z,1.02
2023-03-24T15:49:56.568Z,0.93
2023-03-24T15:55:03.043Z,1.20
2023-03-24T16:00:16.605Z,1.27
2023-03-24T16:05:24.958Z,1.13
2023-03-24T16:10:35.434Z,0.90
2023-03-24T16:15:38.880Z,1.15
2023-03-24T16:20:43.464Z,1.10
2023-03-24T16:25:46.729Z,1.15
2023-03-24T16:30:54.742Z,1.40
2023-03-24T16:35:59.401Z,1.17
2023-03-24T16:41:02.826Z,1.70
2023-03-24T16:46:07.144Z,1.60
2023-03-24T16:51:16.075Z,1.40
2023-03-24T16:56:24.767Z,1.70
2023-03-24T17:01:34.015Z,1.80
2023-03-24T17:06:42.420Z,1.63
2023-03-24T17:11:51.082Z,1.73
2023-03-24T17:16:55.291Z,1.67
2023-03-24T17:22:03.000Z,3.63
2023-03-24T17:27:12.177Z,2.03
2023-03-24T17:32:15.694Z,1.90
2023-03-24T17:37:20.411Z,2.05
2023-03-24T17:42:23.832Z,1.88
2023-03-24T17:47:27.081Z,1.65
2023-03-24T17:52:32.004Z,1.95
2023-03-24T17:57:35.628Z,1.80
2023-03-24T18:02:38.956Z,1.60
2023-03-24T18:07:44.089Z,1.33
2023-03-24T18:12:47.502Z,1.77
2023-03-24T18:17:51.169Z,2.03
2023-03-24T18:22:55.943Z,1.73
2023-03-24T18:27:59.293Z,1.98
2023-03-24T18:33:03.534Z,2.15
2023-03-24T18:38:08.752Z,1.60
2023-03-24T18:43:12.050Z,1.85
2023-03-24T18:48:15.810Z,2.17
2023-03-24T18:53:21.585Z,2.38
2023-03-24T18:58:25.390Z,2.22
2023-03-24T19:03:29.135Z,2.60
2023-03-24T19:08:34.996Z,2.13
2023-03-24T19:13:38.685Z,1.92
2023-03-24T19:18:42.088Z,2.40
2023-03-24T19:23:50.517Z,1.58
2023-03-24T19:28:57.609Z,2.20
2023-03-24T19:34:00.839Z,2.10
2023-03-24T19:39:06.199Z,2.17
2023-03-24T19:44:09.609Z,2.03
2023-03-24T19:49:12.719Z,1.93
2023-03-24T19:54:17.441Z,1.73
2023-03-24T19:59:21.167Z,2.10
2023-03-24T20:04:25.166Z,1.90
2023-03-24T20:09:34.079Z,1.77
2023-03-24T20:14:37.300Z,1.77
2023-03-24T20:19:40.479Z,1.87
2023-03-24T20:24:47.777Z,1.63
2023-03-24T20:29:51.004Z,1.90
2023-03-24T20:34:54.463Z,1.40
2023-03-24T20:39:59.367Z,1.87
2023-03-24T20:45:06.437Z,1.70
2023-03-24T20:50:11.457Z,1.57
2023-03-24T20:55:17.123Z,1.60
2023-03-24T21:00:21.937Z,1.83
2023-03-24T21:05:25.209Z,1.80
2023-03-24T21:10:29.939Z,1.87
2023-03-24T21:15:33.291Z,1.93
2023-03-24T21:20:37.446Z,1.70
2023-03-24T21:25:42.229Z,1.70
2023-03-24T21:30:45.534Z,1.73
2023-03-24T21:35:49.022Z,1.80
2023-03-24T21:41:03.039Z,1.80
2023-03-24T21:46:06.836Z,1.70
2023-03-24T21:51:10.964Z,1.90
2023-03-24T21:56:17.036Z,2.00
2023-03-24T22:01:20.474Z,2.17
2023-03-24T22:06:23.876Z,2.47
2023-03-24T22:11:28.497Z,2.50
2023-03-24T22:16:33.090Z,2.33
2023-03-24T22:21:39.066Z,2.00
2023-03-24T22:26:44.363Z,1.90
2023-03-24T22:31:47.599Z,1.90
2023-03-24T22:36:50.873Z,1.97
2023-03-24T22:41:57.061Z,2.37
2023-03-24T22:47:00.383Z,3.20
2023-03-24T22:52:04.405Z,2.50
2023-03-24T22:57:09.330Z,2.57
2023-03-24T23:02:12.828Z,2.83
2023-03-24T23:07:17.573Z,2.77
2023-03-24T23:12:25.157Z,2.70
2023-03-24T23:17:28.699Z,2.93
2023-03-24T23:22:33.506Z,2.90
2023-03-24T23:27:39.146Z,2.27
2023-03-24T23:32:43.951Z,2.33
2023-03-24T23:37:47.359Z,2.53
2023-03-24T23:42:52.279Z,2.37
2023-03-24T23:47:55.762Z,2.40
2023-03-24T23:52:59.855Z,2.27
2023-03-24T23:58:04.473Z,1.93
